createdAt,value
2023-01-06T00:01:08.891Z,101102.53
2023-01-06T00:03:36.022Z,101103.22
2023-01-06T00:06:05.579Z,101097.13
2023-01-06T00:08:36.082Z,101086.84
2023-01-06T00:11:07.599Z,101091.63
2023-01-06T00:13:34.439Z,101088.34
2023-01-06T00:16:09.475Z,101077.00
2023-01-06T00:18:36.449Z,101080.75
2023-01-06T00:21:04.340Z,101090.91
2023-01-06T00:23:31.700Z,101075.38
2023-01-06T00:25:58.313Z,101080.47
2023-01-06T00:28:25.317Z,101071.81
2023-01-06T00:30:52.999Z,101071.63
2023-01-06T00:33:20.104Z,101072.88
2023-01-06T00:35:46.796Z,101058.84
2023-01-06T00:38:13.520Z,101069.38
2023-01-06T00:40:40.193Z,101065.03
2023-01-06T00:43:06.842Z,101062.94
2023-01-06T00:45:33.548Z,101068.72
2023-01-06T00:48:00.217Z,101061.31
2023-01-06T00:50:26.930Z,101063.91
2023-01-06T00:52:53.995Z,101070.13
2023-01-06T00:55:20.753Z,101065.44
2023-01-06T00:57:47.457Z,101069.28
2023-01-06T01:00:14.417Z,101059.59
2023-01-06T01:02:41.209Z,101060.06
2023-01-06T01:05:08.359Z,101062.88
2023-01-06T01:07:35.837Z,101066.88
2023-01-06T01:10:04.039Z,101059.94
2023-01-06T01:12:30.725Z,101065.31
2023-01-06T01:14:58.083Z,101056.56
2023-01-06T01:17:28.962Z,101050.00
2023-01-06T01:19:57.799Z,101039.91
2023-01-06T01:22:27.041Z,101050.69
2023-01-06T01:24:54.424Z,101047.53
2023-01-06T01:27:21.145Z,101050.94
2023-01-06T01:29:47.841Z,101053.84
2023-01-06T01:32:14.590Z,101050.38
2023-01-06T01:34:41.168Z,101041.97
2023-01-06T01:37:07.803Z,101045.78
2023-01-06T01:39:34.390Z,101044.50
2023-01-06T01:42:01.014Z,101043.13
2023-01-06T01:44:48.692Z,101046.06
2023-01-06T01:47:37.515Z,101045.34
2023-01-06T01:50:38.004Z,101047.53
2023-01-06T01:53:11.336Z,101039.94
2023-01-06T01:55:39.543Z,101043.22
2023-01-06T01:58:12.366Z,101042.47
2023-01-06T02:00:40.875Z,101043.91
2023-01-06T02:03:07.672Z,101043.91
2023-01-06T02:05:40.210Z,101046.81
2023-01-06T02:08:21.498Z,101047.06
2023-01-06T02:10:48.174Z,101043.22
2023-01-06T02:13:14.883Z,101044.72
2023-01-06T02:16:19.553Z,101047.81
2023-01-06T02:18:59.588Z,101048.63
2023-01-06T02:21:53.885Z,101053.59
2023-01-06T02:24:48.482Z,101049.25
2023-01-06T02:27:52.067Z,101045.72
2023-01-06T02:31:00.343Z,101048.94
2023-01-06T02:34:05.267Z,101045.13
2023-01-06T02:36:45.766Z,101052.94
2023-01-06T02:39:23.524Z,101050.94
2023-01-06T02:42:01.486Z,101048.59
2023-01-06T02:45:14.496Z,101052.19
2023-01-06T02:48:15.621Z,101050.09
2023-01-06T02:50:50.815Z,101057.94
2023-01-06T02:53:25.458Z,101039.69
2023-01-06T02:55:54.961Z,101037.84
2023-01-06T02:58:28.746Z,101042.97
2023-01-06T03:01:09.480Z,101043.56
2023-01-06T03:03:39.962Z,101042.00
2023-01-06T03:06:15.036Z,101040.16
2023-01-06T03:08:45.228Z,101029.41
2023-01-06T03:11:12.941Z,101037.84
2023-01-06T03:13:46.860Z,101031.63
2023-01-06T03:16:14.771Z,101028.94
2023-01-06T03:18:43.476Z,101027.53
2023-01-06T03:21:21.351Z,101024.25
2023-01-06T03:23:48.451Z,101017.09
2023-01-06T03:26:15.489Z,101017.63
2023-01-06T03:28:44.261Z,101015.19
2023-01-06T03:31:15.396Z,101013.50
2023-01-06T03:34:10.118Z,101016.19
2023-01-06T03:36:46.039Z,101019.31
2023-01-06T03:39:18.926Z,101017.97
2023-01-06T03:42:35.243Z,101020.84
2023-01-06T03:45:20.769Z,101030.34
2023-01-06T03:47:53.182Z,101027.25
2023-01-06T03:50:28.748Z,101026.34
2023-01-06T03:53:23.363Z,101022.00
2023-01-06T03:56:03.978Z,101018.41
2023-01-06T03:58:31.429Z,101011.44
2023-01-06T04:00:59.177Z,101019.34
2023-01-06T04:03:26.327Z,101008.94
2023-01-06T04:05:54.507Z,101000.69
2023-01-06T04:08:21.591Z,100997.91
2023-01-06T04:10:49.168Z,100995.13
2023-01-06T04:13:16.516Z,101001.31
2023-01-06T04:15:43.315Z,101003.44
2023-01-06T04:18:10.182Z,101003.44
2023-01-06T04:20:39.659Z,100990.78
2023-01-06T04:23:20.028Z,101001.53
2023-01-06T04:25:46.927Z,100985.28
2023-01-06T04:28:23.579Z,100989.38
2023-01-06T04:30:51.993Z,100999.94
2023-01-06T04:33:18.772Z,100988.94
2023-01-06T04:35:48.095Z,100984.50
2023-01-06T04:38:19.377Z,100969.03
2023-01-06T04:40:46.025Z,100976.88
2023-01-06T04:43:16.101Z,100969.19
2023-01-06T04:45:43.827Z,100967.22
2023-01-06T04:48:11.748Z,100959.03
2023-01-06T04:50:38.874Z,100957.38
2023-01-06T04:53:06.628Z,100962.97
2023-01-06T04:55:33.884Z,100960.59
2023-01-06T04:58:00.701Z,100964.22
2023-01-06T05:00:27.482Z,100957.44
2023-01-06T05:02:54.208Z,100957.72
2023-01-06T05:05:20.816Z,100955.53
2023-01-06T05:07:47.483Z,100963.13
2023-01-06T05:10:14.115Z,100958.53
2023-01-06T05:12:41.048Z,100959.00
2023-01-06T05:15:11.515Z,100970.00
2023-01-06T05:17:38.313Z,100971.38
2023-01-06T05:20:05.589Z,100967.78
2023-01-06T05:22:32.173Z,100968.78
2023-01-06T05:24:58.850Z,100978.38
2023-01-06T05:27:25.699Z,100980.84
2023-01-06T05:29:52.437Z,100980.22
2023-01-06T05:32:19.016Z,100985.13
2023-01-06T05:34:45.767Z,100996.78
2023-01-06T05:37:12.448Z,100993.03
2023-01-06T05:39:39.116Z,100998.34
2023-01-06T05:42:05.740Z,100993.50
2023-01-06T05:44:32.339Z,100991.66
2023-01-06T05:46:58.934Z,100993.13
2023-01-06T05:49:25.803Z,100992.09
2023-01-06T05:51:52.428Z,100990.13
2023-01-06T05:54:19.061Z,100988.91
2023-01-06T05:56:45.656Z,100998.19
2023-01-06T05:59:12.363Z,101000.97
2023-01-06T06:01:39.102Z,100996.22
2023-01-06T06:04:05.962Z,100991.44
2023-01-06T06:06:32.908Z,100990.28
2023-01-06T06:08:59.637Z,100990.06
2023-01-06T06:11:26.436Z,100990.94
2023-01-06T06:13:55.112Z,100983.56
2023-01-06T06:16:24.012Z,100995.66
2023-01-06T06:18:52.974Z,100995.13
2023-01-06T06:21:22.418Z,100990.06
2023-01-06T06:23:49.522Z,100999.88
2023-01-06T06:26:16.232Z,100996.31
2023-01-06T06:28:43.072Z,101003.88
2023-01-06T06:31:13.380Z,100999.00
2023-01-06T06:33:40.711Z,101005.41
2023-01-06T06:36:12.242Z,101000.31
2023-01-06T06:38:39.257Z,101006.06
2023-01-06T06:41:05.959Z,101006.59
2023-01-06T06:43:33.659Z,101005.88
2023-01-06T06:46:00.623Z,101015.34
2023-01-06T06:48:30.079Z,101013.00
2023-01-06T06:50:58.340Z,101018.03
2023-01-06T06:53:25.390Z,101016.22
2023-01-06T06:55:52.521Z,101020.19
2023-01-06T06:58:19.134Z,101013.72
2023-01-06T07:00:45.783Z,101017.56
2023-01-06T07:03:12.508Z,101019.88
2023-01-06T07:05:39.208Z,101018.91
2023-01-06T07:08:05.855Z,101023.84
2023-01-06T07:10:32.528Z,101033.19
2023-01-06T07:12:59.183Z,101025.81
2023-01-06T07:15:25.799Z,101031.47
2023-01-06T07:17:52.482Z,101039.69
2023-01-06T07:20:19.128Z,101031.19
2023-01-06T07:22:45.769Z,101037.06
2023-01-06T07:25:12.677Z,101041.84
2023-01-06T07:27:39.297Z,101041.84
2023-01-06T07:30:06.632Z,101042.31
2023-01-06T07:32:33.258Z,101042.22
2023-01-06T07:34:59.940Z,101048.03
2023-01-06T07:37:26.573Z,101052.72
2023-01-06T07:39:53.286Z,101059.16
2023-01-06T07:42:19.954Z,101056.00
2023-01-06T07:44:46.713Z,101063.56
2023-01-06T07:47:14.159Z,101066.09
2023-01-06T07:49:40.851Z,101064.00
2023-01-06T07:52:07.569Z,101065.94
2023-01-06T07:54:34.431Z,101066.78
2023-01-06T07:57:01.089Z,101068.72
2023-01-06T07:59:27.703Z,101064.00
2023-01-06T08:01:54.401Z,101069.94
2023-01-06T08:04:21.139Z,101082.81
2023-01-06T08:06:47.819Z,101082.44
2023-01-06T08:09:14.459Z,101079.66
2023-01-06T08:11:41.021Z,101086.47
2023-01-06T08:14:07.736Z,101088.72
2023-01-06T08:16:34.299Z,101089.47
2023-01-06T08:19:00.843Z,101088.19
2023-01-06T08:21:27.477Z,101091.09
2023-01-06T08:23:54.086Z,101096.03
2023-01-06T08:26:20.754Z,101097.22
2023-01-06T08:28:47.342Z,101098.88
2023-01-06T08:31:16.452Z,101100.06
2023-01-06T08:33:43.667Z,101094.22
2023-01-06T08:36:14.285Z,101098.63
2023-01-06T08:38:41.734Z,101089.16
2023-01-06T08:41:09.022Z,101083.47
2023-01-06T08:43:36.403Z,101086.16
2023-01-06T08:46:06.280Z,101080.19
2023-01-06T08:48:34.283Z,101081.34
2023-01-06T08:51:12.446Z,101081.13
2023-01-06T08:53:39.609Z,101083.00
2023-01-06T08:56:16.122Z,101090.19
2023-01-06T08:58:43.303Z,101082.94
2023-01-06T09:01:21.231Z,101082.81
2023-01-06T09:03:48.533Z,101084.91
2023-01-06T09:06:17.118Z,101067.16
2023-01-06T09:08:43.746Z,101066.91
2023-01-06T09:11:12.066Z,101074.03
2023-01-06T09:13:39.116Z,101070.25
2023-01-06T09:16:07.362Z,101060.94
2023-01-06T09:18:35.499Z,101066.44
2023-01-06T09:21:03.283Z,101057.38
2023-01-06T09:23:30.098Z,101051.56
2023-01-06T09:25:58.069Z,101042.06
2023-01-06T09:28:25.882Z,101050.47
2023-01-06T09:30:52.765Z,101050.09
2023-01-06T09:33:19.527Z,101047.84
2023-01-06T09:35:46.819Z,101061.31
2023-01-06T09:38:14.932Z,101073.28
2023-01-06T09:40:58.123Z,101093.75
2023-01-06T09:43:43.874Z,101090.91
2023-01-06T09:46:14.952Z,101092.09
2023-01-06T09:49:09.980Z,101081.00
2023-01-06T09:51:37.883Z,101080.78
2023-01-06T09:54:19.260Z,101083.19
2023-01-06T09:56:53.711Z,101084.59
2023-01-06T09:59:34.043Z,101077.69
2023-01-06T10:02:03.034Z,101075.69
2023-01-06T10:04:30.939Z,101077.22
2023-01-06T10:07:16.090Z,101080.84
2023-01-06T10:09:57.324Z,101077.72
2023-01-06T10:12:45.777Z,101080.06
2023-01-06T10:15:38.020Z,101083.78
2023-01-06T10:18:17.458Z,101080.47
2023-01-06T10:21:17.713Z,101082.44
2023-01-06T10:24:01.073Z,101088.19
2023-01-06T10:26:32.984Z,101090.47
2023-01-06T10:29:14.920Z,101085.09
2023-01-06T10:31:44.966Z,101094.13
2023-01-06T10:34:25.930Z,101090.03
2023-01-06T10:37:02.657Z,101097.28
2023-01-06T10:39:31.762Z,101099.06
2023-01-06T10:42:24.565Z,101094.03
2023-01-06T10:44:51.227Z,101088.19
2023-01-06T10:47:25.797Z,101089.34
2023-01-06T10:49:52.516Z,101091.81
2023-01-06T10:52:20.867Z,101088.22
2023-01-06T10:54:49.337Z,101083.97
2023-01-06T10:57:22.676Z,101082.09
2023-01-06T11:00:14.161Z,101077.66
2023-01-06T11:02:49.533Z,101080.22
2023-01-06T11:05:20.103Z,101074.94
2023-01-06T11:08:07.832Z,101081.63
2023-01-06T11:10:42.847Z,101075.78
2023-01-06T11:13:23.083Z,101088.66
2023-01-06T11:15:50.137Z,101082.69
2023-01-06T11:18:21.787Z,101093.81
2023-01-06T11:21:12.827Z,101082.44
2023-01-06T11:23:42.010Z,101084.69
2023-01-06T11:26:11.631Z,101078.63
2023-01-06T11:28:39.766Z,101081.66
2023-01-06T11:31:20.009Z,101079.09
2023-01-06T11:33:53.658Z,101059.00
2023-01-06T11:36:23.597Z,101061.81
2023-01-06T11:38:56.166Z,101056.06
2023-01-06T11:41:31.043Z,101051.59
2023-01-06T11:44:17.284Z,101060.59
2023-01-06T11:46:55.494Z,101045.34
2023-01-06T11:49:31.028Z,101048.16
2023-01-06T11:52:07.293Z,101040.91
2023-01-06T11:54:33.881Z,101046.19
2023-01-06T11:57:17.391Z,101031.66
2023-01-06T11:59:54.317Z,101040.38
2023-01-06T12:02:32.664Z,101030.19
2023-01-06T12:05:05.766Z,101014.84
2023-01-06T12:07:44.123Z,101015.19
2023-01-06T12:10:17.530Z,101014.28
2023-01-06T12:12:44.766Z,101023.19
2023-01-06T12:15:14.580Z,101008.06
2023-01-06T12:17:52.400Z,101013.09
2023-01-06T12:20:38.457Z,101021.94
2023-01-06T12:23:10.783Z,101012.44
2023-01-06T12:25:43.200Z,101007.06
2023-01-06T12:28:18.182Z,101011.38
2023-01-06T12:31:15.904Z,101004.94
2023-01-06T12:34:10.108Z,101003.28
2023-01-06T12:36:55.218Z,101006.00
2023-01-06T12:39:42.805Z,101009.09
2023-01-06T12:42:27.464Z,101022.81
2023-01-06T12:45:03.362Z,101019.66
2023-01-06T12:47:43.076Z,101022.34
2023-01-06T12:50:40.335Z,101022.78
2023-01-06T12:53:20.223Z,101021.50
2023-01-06T12:56:06.981Z,101021.38
2023-01-06T12:59:25.406Z,101014.47
2023-01-06T13:02:29.951Z,101021.53
2023-01-06T13:05:33.257Z,101027.13
2023-01-06T13:08:16.145Z,101025.69
2023-01-06T13:10:58.020Z,101023.13
2023-01-06T13:13:30.479Z,101024.06
2023-01-06T13:16:05.170Z,101020.44
2023-01-06T13:18:41.203Z,101023.00
2023-01-06T13:21:11.280Z,101032.63
2023-01-06T13:23:51.858Z,101031.00
2023-01-06T13:26:40.531Z,101030.28
2023-01-06T13:29:25.084Z,101029.00
2023-01-06T13:32:04.418Z,101026.91
2023-01-06T13:34:45.264Z,101022.91
2023-01-06T13:37:34.961Z,101029.69
2023-01-06T13:40:19.761Z,101030.19
2023-01-06T13:42:58.092Z,101031.81
2023-01-06T13:45:34.092Z,101028.78
2023-01-06T13:48:08.371Z,101034.16
2023-01-06T13:50:38.031Z,101032.72
2023-01-06T13:53:06.735Z,101032.63
2023-01-06T13:55:39.042Z,101027.00
2023-01-06T13:58:26.646Z,101027.13
2023-01-06T14:01:08.686Z,101029.84
2023-01-06T14:03:37.725Z,101033.53
2023-01-06T14:06:05.233Z,101036.75
2023-01-06T14:08:36.840Z,101032.34
2023-01-06T14:11:19.177Z,101030.19
2023-01-06T14:13:52.800Z,101037.53
2023-01-06T14:16:20.424Z,101040.13
2023-01-06T14:18:52.203Z,101038.94
2023-01-06T14:21:28.365Z,101031.91
2023-01-06T14:24:18.377Z,101029.44
2023-01-06T14:26:50.832Z,101027.72
2023-01-06T14:29:39.555Z,101024.53
2023-01-06T14:32:07.254Z,101028.28
2023-01-06T14:34:36.803Z,101023.00
2023-01-06T14:37:05.563Z,101026.63
2023-01-06T14:39:34.995Z,101033.78
2023-01-06T14:42:06.750Z,101041.75
2023-01-06T14:44:49.183Z,101041.75
2023-01-06T14:47:49.535Z,101039.16
2023-01-06T14:50:22.274Z,101040.13
2023-01-06T14:53:18.172Z,101030.25
2023-01-06T14:55:48.170Z,101023.63
2023-01-06T14:58:32.914Z,101013.41
2023-01-06T15:01:03.885Z,101014.94
2023-01-06T15:03:31.951Z,101007.88
2023-01-06T15:06:13.628Z,101007.88
2023-01-06T15:08:40.673Z,101014.53
2023-01-06T15:11:20.577Z,101019.13
2023-01-06T15:13:47.480Z,101021.34
2023-01-06T15:16:34.590Z,101025.56
2023-01-06T15:19:02.717Z,101033.19
2023-01-06T15:21:41.777Z,101027.69
2023-01-06T15:24:27.905Z,101024.97
2023-01-06T15:27:04.473Z,101033.16
2023-01-06T15:29:31.339Z,101031.22
2023-01-06T15:31:58.832Z,101028.00
2023-01-06T15:34:33.614Z,101029.66
2023-01-06T15:37:04.575Z,101032.84
2023-01-06T15:39:34.892Z,101042.44
2023-01-06T15:42:06.080Z,101035.66
2023-01-06T15:44:35.709Z,101027.34
2023-01-06T15:47:28.512Z,101026.63
2023-01-06T15:50:02.145Z,101024.75
2023-01-06T15:52:37.384Z,101028.03
2023-01-06T15:55:18.237Z,101037.19
2023-01-06T15:57:53.728Z,101029.63
2023-01-06T16:00:28.361Z,101036.78
2023-01-06T16:02:55.813Z,101039.59
2023-01-06T16:05:43.248Z,101034.78
2023-01-06T16:08:25.055Z,101026.41
2023-01-06T16:11:17.596Z,101032.19
2023-01-06T16:13:56.219Z,101028.03
2023-01-06T16:16:26.357Z,101026.53
2023-01-06T16:18:54.994Z,101031.31
2023-01-06T16:21:26.465Z,101032.38
2023-01-06T16:24:04.932Z,101031.88
2023-01-06T16:26:36.737Z,101026.16
2023-01-06T16:29:24.977Z,101035.28
2023-01-06T16:31:51.635Z,101029.31
2023-01-06T16:34:21.428Z,101037.09
2023-01-06T16:36:53.693Z,101045.75
2023-01-06T16:39:20.402Z,101047.56
2023-01-06T16:41:58.920Z,101053.97
2023-01-06T16:44:26.798Z,101052.19
2023-01-06T16:46:53.512Z,101058.31
2023-01-06T16:49:21.655Z,101062.53
2023-01-06T16:51:48.838Z,101068.53
2023-01-06T16:54:19.767Z,101073.06
2023-01-06T16:56:46.995Z,101068.06
2023-01-06T16:59:19.129Z,101057.91
2023-01-06T17:01:47.749Z,101067.97
2023-01-06T17:04:15.467Z,101066.19
2023-01-06T17:06:43.963Z,101059.41
2023-01-06T17:09:13.750Z,101064.34
2023-01-06T17:11:40.512Z,101055.28
2023-01-06T17:14:15.317Z,101059.03
2023-01-06T17:16:45.021Z,101057.44
2023-01-06T17:19:26.714Z,101059.22
2023-01-06T17:22:04.523Z,101057.66
2023-01-06T17:24:31.418Z,101054.75
2023-01-06T17:27:20.533Z,101055.34
2023-01-06T17:29:47.821Z,101066.38
2023-01-06T17:32:19.622Z,101064.97
2023-01-06T17:34:50.068Z,101062.63
2023-01-06T17:37:25.916Z,101060.06
2023-01-06T17:39:53.120Z,101066.66
2023-01-06T17:42:40.164Z,101060.41
2023-01-06T17:45:49.189Z,101061.97
2023-01-06T17:48:36.441Z,101072.88
2023-01-06T17:51:04.545Z,101066.56
2023-01-06T17:53:55.469Z,101077.53
2023-01-06T17:56:26.117Z,101072.69
2023-01-06T17:58:52.891Z,101069.94
2023-01-06T18:01:23.759Z,101073.91
2023-01-06T18:03:52.236Z,101076.00
2023-01-06T18:06:22.968Z,101076.59
2023-01-06T18:09:07.883Z,101068.94
2023-01-06T18:11:37.270Z,101060.72
2023-01-06T18:14:36.377Z,101066.38
2023-01-06T18:17:19.911Z,101065.31
2023-01-06T18:19:46.832Z,101062.94
2023-01-06T18:22:19.814Z,101062.81
2023-01-06T18:24:48.392Z,101055.91
2023-01-06T18:27:27.175Z,101064.59
2023-01-06T18:30:00.118Z,101070.59
2023-01-06T18:32:32.115Z,101078.50
2023-01-06T18:35:05.141Z,101070.66
2023-01-06T18:37:35.945Z,101068.78
2023-01-06T18:40:07.163Z,101067.84
2023-01-06T18:42:45.100Z,101069.56
2023-01-06T18:45:11.646Z,101064.38
2023-01-06T18:47:41.107Z,101069.13
2023-01-06T18:50:28.308Z,101063.06
2023-01-06T18:53:06.917Z,101074.28
2023-01-06T18:55:42.806Z,101082.09
2023-01-06T18:58:36.326Z,101079.19
2023-01-06T19:01:29.528Z,101072.03
2023-01-06T19:04:02.894Z,101072.69
2023-01-06T19:06:42.203Z,101077.03
2023-01-06T19:09:18.777Z,101070.13
2023-01-06T19:11:47.297Z,101079.69
2023-01-06T19:14:18.383Z,101072.69
2023-01-06T19:16:51.891Z,101081.66
2023-01-06T19:19:41.576Z,101085.09
2023-01-06T19:22:14.649Z,101077.25
2023-01-06T19:24:48.361Z,101083.28
2023-01-06T19:27:31.782Z,101091.88
2023-01-06T19:30:28.770Z,101088.28
2023-01-06T19:33:23.915Z,101094.00
2023-01-06T19:36:06.605Z,101081.09
2023-01-06T19:38:41.778Z,101085.16
2023-01-06T19:41:26.909Z,101084.22
2023-01-06T19:44:15.068Z,101080.69
2023-01-06T19:46:44.562Z,101072.28
2023-01-06T19:49:11.267Z,101078.09
2023-01-06T19:51:38.065Z,101076.38
2023-01-06T19:54:35.418Z,101078.13
2023-01-06T19:57:21.699Z,101085.09
2023-01-06T19:59:48.837Z,101078.97
2023-01-06T20:02:29.161Z,101068.88
2023-01-06T20:04:57.229Z,101081.69
2023-01-06T20:07:28.231Z,101078.09
2023-01-06T20:09:56.054Z,101081.06
2023-01-06T20:12:23.095Z,101083.09
2023-01-06T20:14:49.871Z,101078.13
2023-01-06T20:17:16.757Z,101063.75
2023-01-06T20:19:43.440Z,101069.59
2023-01-06T20:22:10.101Z,101063.09
2023-01-06T20:24:36.903Z,101060.13
2023-01-06T20:27:03.868Z,101062.19
2023-01-06T20:29:32.935Z,101060.66
2023-01-06T20:32:00.009Z,101059.44
2023-01-06T20:34:26.737Z,101063.22
2023-01-06T20:36:53.543Z,101065.69
2023-01-06T20:39:20.586Z,101071.06
2023-01-06T20:41:47.324Z,101072.25
2023-01-06T20:44:14.184Z,101067.09
2023-01-06T20:46:40.886Z,101064.22
2023-01-06T20:49:07.547Z,101058.94
2023-01-06T20:51:34.179Z,101058.53
2023-01-06T20:54:00.831Z,101060.47
2023-01-06T20:56:27.500Z,101058.84
2023-01-06T20:58:57.155Z,101062.50
2023-01-06T21:01:23.867Z,101053.34
2023-01-06T21:03:51.815Z,101057.78
2023-01-06T21:06:18.600Z,101058.13
2023-01-06T21:08:45.195Z,101059.13
2023-01-06T21:11:11.961Z,101058.19
2023-01-06T21:13:38.660Z,101047.16
2023-01-06T21:16:06.124Z,101049.47
2023-01-06T21:18:35.490Z,101051.78
2023-01-06T21:21:02.187Z,101056.91
2023-01-06T21:23:28.869Z,101063.16
2023-01-06T21:25:55.523Z,101062.75
2023-01-06T21:28:22.184Z,101052.69
2023-01-06T21:30:48.879Z,101057.25
2023-01-06T21:33:16.625Z,101045.16
2023-01-06T21:35:43.296Z,101055.50
2023-01-06T21:38:10.001Z,101044.28
2023-01-06T21:40:37.070Z,101045.84
2023-01-06T21:43:09.789Z,101035.63
2023-01-06T21:45:38.478Z,101038.25
2023-01-06T21:48:06.878Z,101036.34
2023-01-06T21:50:37.324Z,101037.91
2023-01-06T21:53:04.491Z,101041.59
2023-01-06T21:55:31.245Z,101045.56
2023-01-06T21:58:04.532Z,101051.00
2023-01-06T22:00:36.924Z,101055.16
2023-01-06T22:03:05.028Z,101051.06
2023-01-06T22:05:31.818Z,101050.69
2023-01-06T22:07:58.564Z,101053.00
2023-01-06T22:10:28.355Z,101050.13
2023-01-06T22:12:56.793Z,101042.06
2023-01-06T22:15:23.990Z,101042.63
2023-01-06T22:17:55.942Z,101041.44
2023-01-06T22:20:22.883Z,101043.03
2023-01-06T22:22:53.217Z,101046.38
2023-01-06T22:25:29.574Z,101044.94
2023-01-06T22:27:59.458Z,101039.19
2023-01-06T22:30:27.575Z,101039.84
2023-01-06T22:32:54.532Z,101042.19
2023-01-06T22:35:25.020Z,101040.94
2023-01-06T22:37:52.010Z,101044.56
2023-01-06T22:40:19.122Z,101044.03
2023-01-06T22:42:46.477Z,101045.09
2023-01-06T22:45:13.882Z,101051.94
2023-01-06T22:47:41.168Z,101042.41
2023-01-06T22:50:08.908Z,101049.88
2023-01-06T22:52:36.121Z,101053.38
2023-01-06T22:55:04.018Z,101055.63
2023-01-06T22:57:30.852Z,101048.09
2023-01-06T23:00:07.655Z,101051.09
2023-01-06T23:02:35.234Z,101051.78
2023-01-06T23:05:02.807Z,101047.59
2023-01-06T23:07:30.712Z,101046.44
2023-01-06T23:09:57.350Z,101048.69
2023-01-06T23:12:24.391Z,101051.47
2023-01-06T23:14:51.063Z,101045.50
2023-01-06T23:17:17.735Z,101051.31
2023-01-06T23:19:44.571Z,101054.16
2023-01-06T23:22:15.054Z,101049.22
2023-01-06T23:24:41.674Z,101055.09
2023-01-06T23:27:08.627Z,101051.38
2023-01-06T23:29:35.336Z,101047.25
2023-01-06T23:32:04.378Z,101046.38
2023-01-06T23:34:49.320Z,101046.75
2023-01-06T23:37:16.349Z,101041.47
2023-01-06T23:39:43.410Z,101040.34
2023-01-06T23:42:10.181Z,101039.53
2023-01-06T23:44:36.834Z,101033.59
2023-01-06T23:47:03.541Z,101034.63
2023-01-06T23:49:30.213Z,101020.94
2023-01-06T23:51:57.026Z,101009.13
2023-01-06T23:54:23.649Z,101015.06
2023-01-06T23:56:50.351Z,101015.28
2023-01-06T23:59:17.251Z,101009.72
